sensor_id;sensor_type;location;lat;lon;timestamp;P1;durP1;ratioP1;P2;durP2;ratioP2
20322;SDS011;10319;52.206;20.996;2023-03-19T00:00:07;22.53;;;7.97;;
20322;SDS011;10319;52.206;20.996;2023-03-19T00:02:33;24.50;;;8.60;;
20322;SDS011;10319;52.206;20.996;2023-03-19T00:04:58;22.47;;;7.93;;
20322;SDS011;10319;52.206;20.996;2023-03-19T00:07:23;24.23;;;8.47;;
20322;SDS011;10319;52.206;20.996;2023-03-19T00:09:48;25.03;;;8.30;;
20322;SDS011;10319;52.206;20.996;2023-03-19T00:12:13;27.30;;;8.90;;
20322;SDS011;10319;52.206;20.996;2023-03-19T00:14:39;25.20;;;8.00;;
20322;SDS011;10319;52.206;20.996;2023-03-19T00:17:04;25.37;;;7.87;;
20322;SDS011;10319;52.206;20.996;2023-03-19T00:19:30;25.33;;;8.40;;
20322;SDS011;10319;52.206;20.996;2023-03-19T00:21:55;27.90;;;8.97;;
20322;SDS011;10319;52.206;20.996;2023-03-19T00:24:20;24.57;;;8.50;;
20322;SDS011;10319;52.206;20.996;2023-03-19T00:26:46;24.97;;;8.27;;
20322;SDS011;10319;52.206;20.996;2023-03-19T00:29:11;27.03;;;9.60;;
20322;SDS011;10319;52.206;20.996;2023-03-19T00:31:37;25.37;;;9.13;;
20322;SDS011;10319;52.206;20.996;2023-03-19T00:34:03;25.87;;;9.10;;
20322;SDS011;10319;52.206;20.996;2023-03-19T00:36:29;25.33;;;8.20;;
20322;SDS011;10319;52.206;20.996;2023-03-19T00:38:54;24.13;;;8.80;;
20322;SDS011;10319;52.206;20.996;2023-03-19T00:41:19;25.67;;;8.93;;
20322;SDS011;10319;52.206;20.996;2023-03-19T00:43:46;24.47;;;8.77;;
20322;SDS011;10319;52.206;20.996;2023-03-19T00:46:11;25.47;;;8.37;;
20322;SDS011;10319;52.206;20.996;2023-03-19T00:48:36;26.40;;;9.20;;
20322;SDS011;10319;52.206;20.996;2023-03-19T00:51:02;24.97;;;8.53;;
20322;SDS011;10319;52.206;20.996;2023-03-19T00:53:28;24.03;;;8.23;;
20322;SDS011;10319;52.206;20.996;2023-03-19T00:55:53;24.97;;;8.60;;
20322;SDS011;10319;52.206;20.996;2023-03-19T00:58:18;25.83;;;8.77;;
20322;SDS011;10319;52.206;20.996;2023-03-19T01:00:44;24.37;;;8.10;;
20322;SDS011;10319;52.206;20.996;2023-03-19T01:03:09;22.73;;;8.27;;
20322;SDS011;10319;52.206;20.996;2023-03-19T01:05:35;25.07;;;8.77;;
20322;SDS011;10319;52.206;20.996;2023-03-19T01:08:00;26.00;;;8.60;;
20322;SDS011;10319;52.206;20.996;2023-03-19T01:10:26;28.17;;;9.20;;
20322;SDS011;10319;52.206;20.996;2023-03-19T01:12:51;28.67;;;8.87;;
20322;SDS011;10319;52.206;20.996;2023-03-19T01:15:17;25.93;;;8.37;;
20322;SDS011;10319;52.206;20.996;2023-03-19T01:17:42;24.50;;;8.60;;
20322;SDS011;10319;52.206;20.996;2023-03-19T01:20:08;25.37;;;9.00;;
20322;SDS011;10319;52.206;20.996;2023-03-19T01:22:37;27.27;;;9.03;;
20322;SDS011;10319;52.206;20.996;2023-03-19T01:25:03;24.97;;;8.40;;
20322;SDS011;10319;52.206;20.996;2023-03-19T01:27:29;26.23;;;8.93;;
20322;SDS011;10319;52.206;20.996;2023-03-19T01:29:54;26.27;;;8.40;;
20322;SDS011;10319;52.206;20.996;2023-03-19T01:32:20;27.33;;;9.03;;
20322;SDS011;10319;52.206;20.996;2023-03-19T01:34:45;25.63;;;8.43;;
20322;SDS011;10319;52.206;20.996;2023-03-19T01:37:11;25.57;;;8.60;;
20322;SDS011;10319;52.206;20.996;2023-03-19T01:39:36;26.40;;;8.67;;
20322;SDS011;10319;52.206;20.996;2023-03-19T01:42:02;25.70;;;8.77;;
20322;SDS011;10319;52.206;20.996;2023-03-19T01:44:32;23.40;;;8.03;;
20322;SDS011;10319;52.206;20.996;2023-03-19T01:46:57;27.70;;;9.00;;
20322;SDS011;10319;52.206;20.996;2023-03-19T01:49:23;25.40;;;8.13;;
20322;SDS011;10319;52.206;20.996;2023-03-19T01:51:50;27.03;;;8.90;;
20322;SDS011;10319;52.206;20.996;2023-03-19T01:54:16;26.63;;;9.23;;
20322;SDS011;10319;52.206;20.996;2023-03-19T01:56:43;25.87;;;8.67;;
20322;SDS011;10319;52.206;20.996;2023-03-19T01:59:10;24.90;;;8.50;;
20322;SDS011;10319;52.206;20.996;2023-03-19T02:01:37;26.80;;;9.00;;
20322;SDS011;10319;52.206;20.996;2023-03-19T02:04:05;24.10;;;7.90;;
20322;SDS011;10319;52.206;20.996;2023-03-19T02:06:31;26.57;;;8.53;;
20322;SDS011;10319;52.206;20.996;2023-03-19T02:08:57;23.80;;;8.07;;
20322;SDS011;10319;52.206;20.996;2023-03-19T02:11:23;26.23;;;8.47;;
20322;SDS011;10319;52.206;20.996;2023-03-19T02:13:48;25.70;;;8.53;;
20322;SDS011;10319;52.206;20.996;2023-03-19T02:16:13;25.13;;;9.17;;
20322;SDS011;10319;52.206;20.996;2023-03-19T02:18:39;25.43;;;7.93;;
20322;SDS011;10319;52.206;20.996;2023-03-19T02:26:15;28.53;;;9.37;;
20322;SDS011;10319;52.206;20.996;2023-03-19T02:28:41;24.50;;;8.47;;
20322;SDS011;10319;52.206;20.996;2023-03-19T02:31:08;28.07;;;9.60;;
20322;SDS011;10319;52.206;20.996;2023-03-19T02:33:33;25.93;;;8.27;;
20322;SDS011;10319;52.206;20.996;2023-03-19T02:35:59;21.93;;;7.73;;
20322;SDS011;10319;52.206;20.996;2023-03-19T02:38:26;25.10;;;8.90;;
20322;SDS011;10319;52.206;20.996;2023-03-19T02:40:52;26.90;;;9.17;;
20322;SDS011;10319;52.206;20.996;2023-03-19T02:43:20;25.97;;;8.47;;
20322;SDS011;10319;52.206;20.996;2023-03-19T02:45:45;28.93;;;9.77;;
20322;SDS011;10319;52.206;20.996;2023-03-19T02:48:11;26.50;;;8.77;;
20322;SDS011;10319;52.206;20.996;2023-03-19T02:50:36;24.77;;;8.30;;
20322;SDS011;10319;52.206;20.996;2023-03-19T02:53:01;24.87;;;8.53;;
20322;SDS011;10319;52.206;20.996;2023-03-19T02:55:27;24.67;;;9.03;;
20322;SDS011;10319;52.206;20.996;2023-03-19T02:57:52;24.53;;;9.10;;
20322;SDS011;10319;52.206;20.996;2023-03-19T03:00:18;31.50;;;9.60;;
20322;SDS011;10319;52.206;20.996;2023-03-19T03:02:44;27.17;;;9.27;;
20322;SDS011;10319;52.206;20.996;2023-03-19T03:05:10;24.13;;;8.27;;
20322;SDS011;10319;52.206;20.996;2023-03-19T03:07:35;27.80;;;8.80;;
20322;SDS011;10319;52.206;20.996;2023-03-19T03:10:01;24.63;;;8.50;;
20322;SDS011;10319;52.206;20.996;2023-03-19T03:12:26;24.13;;;8.77;;
20322;SDS011;10319;52.206;20.996;2023-03-19T03:14:52;26.10;;;8.33;;
20322;SDS011;10319;52.206;20.996;2023-03-19T03:17:17;25.37;;;8.87;;
20322;SDS011;10319;52.206;20.996;2023-03-19T03:19:43;26.27;;;8.77;;
20322;SDS011;10319;52.206;20.996;2023-03-19T03:22:08;27.00;;;9.07;;
20322;SDS011;10319;52.206;20.996;2023-03-19T03:24:33;25.40;;;8.73;;
20322;SDS011;10319;52.206;20.996;2023-03-19T03:26:58;28.17;;;9.47;;
20322;SDS011;10319;52.206;20.996;2023-03-19T03:29:24;26.93;;;8.53;;
20322;SDS011;10319;52.206;20.996;2023-03-19T03:31:50;24.27;;;8.63;;
20322;SDS011;10319;52.206;20.996;2023-03-19T03:34:17;28.03;;;9.43;;
20322;SDS011;10319;52.206;20.996;2023-03-19T03:36:42;22.87;;;7.73;;
20322;SDS011;10319;52.206;20.996;2023-03-19T03:39:07;25.40;;;8.87;;
20322;SDS011;10319;52.206;20.996;2023-03-19T03:41:33;25.97;;;9.20;;
20322;SDS011;10319;52.206;20.996;2023-03-19T03:43:58;27.00;;;8.83;;
20322;SDS011;10319;52.206;20.996;2023-03-19T03:46:23;25.20;;;9.10;;
20322;SDS011;10319;52.206;20.996;2023-03-19T03:48:49;22.43;;;8.70;;
20322;SDS011;10319;52.206;20.996;2023-03-19T03:51:15;25.00;;;8.70;;
20322;SDS011;10319;52.206;20.996;2023-03-19T03:53:41;26.40;;;8.53;;
20322;SDS011;10319;52.206;20.996;2023-03-19T03:56:06;27.43;;;8.40;;
20322;SDS011;10319;52.206;20.996;2023-03-19T03:58:32;25.83;;;8.40;;
20322;SDS011;10319;52.206;20.996;2023-03-19T04:00:57;26.90;;;9.10;;
20322;SDS011;10319;52.206;20.996;2023-03-19T04:03:22;26.07;;;8.67;;
20322;SDS011;10319;52.206;20.996;2023-03-19T04:05:48;23.77;;;8.47;;
20322;SDS011;10319;52.206;20.996;2023-03-19T04:08:14;24.53;;;8.20;;
20322;SDS011;10319;52.206;20.996;2023-03-19T04:10:40;24.40;;;8.27;;
20322;SDS011;10319;52.206;20.996;2023-03-19T04:13:06;24.67;;;8.73;;
20322;SDS011;10319;52.206;20.996;2023-03-19T04:15:31;26.53;;;9.50;;
20322;SDS011;10319;52.206;20.996;2023-03-19T04:17:56;25.57;;;8.43;;
20322;SDS011;10319;52.206;20.996;2023-03-19T04:20:22;25.67;;;8.77;;
20322;SDS011;10319;52.206;20.996;2023-03-19T04:22:47;23.53;;;7.80;;
20322;SDS011;10319;52.206;20.996;2023-03-19T04:25:12;25.57;;;8.73;;
20322;SDS011;10319;52.206;20.996;2023-03-19T04:27:38;25.63;;;9.07;;
20322;SDS011;10319;52.206;20.996;2023-03-19T04:30:03;22.23;;;7.93;;
20322;SDS011;10319;52.206;20.996;2023-03-19T04:32:28;23.13;;;7.97;;
20322;SDS011;10319;52.206;20.996;2023-03-19T04:34:53;23.83;;;8.17;;
20322;SDS011;10319;52.206;20.996;2023-03-19T04:37:19;26.60;;;8.13;;
20322;SDS011;10319;52.206;20.996;2023-03-19T04:39:44;26.87;;;8.80;;
20322;SDS011;10319;52.206;20.996;2023-03-19T04:42:09;26.47;;;8.97;;
20322;SDS011;10319;52.206;20.996;2023-03-19T04:44:35;28.77;;;9.27;;
20322;SDS011;10319;52.206;20.996;2023-03-19T04:47:01;25.70;;;8.60;;
20322;SDS011;10319;52.206;20.996;2023-03-19T04:49:26;24.80;;;8.20;;
20322;SDS011;10319;52.206;20.996;2023-03-19T04:51:52;26.97;;;9.00;;
20322;SDS011;10319;52.206;20.996;2023-03-19T04:54:17;23.97;;;8.67;;
20322;SDS011;10319;52.206;20.996;2023-03-19T04:56:42;27.77;;;8.63;;
20322;SDS011;10319;52.206;20.996;2023-03-19T04:59:08;24.43;;;8.07;;
20322;SDS011;10319;52.206;20.996;2023-03-19T05:01:34;23.13;;;7.60;;
20322;SDS011;10319;52.206;20.996;2023-03-19T05:04:00;21.77;;;7.90;;
20322;SDS011;10319;52.206;20.996;2023-03-19T05:06:26;27.33;;;8.90;;
20322;SDS011;10319;52.206;20.996;2023-03-19T05:08:51;25.37;;;8.60;;
20322;SDS011;10319;52.206;20.996;2023-03-19T05:11:16;26.17;;;8.97;;
20322;SDS011;10319;52.206;20.996;2023-03-19T05:13:42;28.07;;;8.83;;
20322;SDS011;10319;52.206;20.996;2023-03-19T05:16:07;26.43;;;8.63;;
20322;SDS011;10319;52.206;20.996;2023-03-19T05:18:33;26.67;;;8.60;;
20322;SDS011;10319;52.206;20.996;2023-03-19T05:20:58;25.73;;;8.07;;
20322;SDS011;10319;52.206;20.996;2023-03-19T05:23:23;27.87;;;8.63;;
20322;SDS011;10319;52.206;20.996;2023-03-19T05:25:49;27.03;;;9.23;;
20322;SDS011;10319;52.206;20.996;2023-03-19T05:28:14;27.50;;;8.63;;
20322;SDS011;10319;52.206;20.996;2023-03-19T05:30:40;25.87;;;8.70;;
20322;SDS011;10319;52.206;20.996;2023-03-19T05:33:05;23.00;;;8.40;;
20322;SDS011;10319;52.206;20.996;2023-03-19T05:35:30;24.97;;;7.90;;
20322;SDS011;10319;52.206;20.996;2023-03-19T05:37:56;26.37;;;8.93;;
20322;SDS011;10319;52.206;20.996;2023-03-19T05:40:21;24.73;;;8.97;;
20322;SDS011;10319;52.206;20.996;2023-03-19T05:42:47;24.70;;;8.70;;
20322;SDS011;10319;52.206;20.996;2023-03-19T05:45:12;23.50;;;8.40;;
20322;SDS011;10319;52.206;20.996;2023-03-19T05:47:38;30.90;;;9.93;;
20322;SDS011;10319;52.206;20.996;2023-03-19T05:50:04;26.77;;;9.07;;
20322;SDS011;10319;52.206;20.996;2023-03-19T05:52:29;23.50;;;8.30;;
20322;SDS011;10319;52.206;20.996;2023-03-19T05:54:54;27.57;;;8.70;;
20322;SDS011;10319;52.206;20.996;2023-03-19T05:57:20;27.13;;;9.57;;
20322;SDS011;10319;52.206;20.996;2023-03-19T05:59:45;25.47;;;8.77;;
20322;SDS011;10319;52.206;20.996;2023-03-19T06:02:11;25.73;;;9.20;;
20322;SDS011;10319;52.206;20.996;2023-03-19T06:04:36;23.73;;;9.17;;
20322;SDS011;10319;52.206;20.996;2023-03-19T06:07:01;24.20;;;8.97;;
20322;SDS011;10319;52.206;20.996;2023-03-19T06:09:28;24.50;;;8.93;;
20322;SDS011;10319;52.206;20.996;2023-03-19T06:11:53;25.07;;;9.33;;
20322;SDS011;10319;52.206;20.996;2023-03-19T06:14:19;25.60;;;8.80;;
20322;SDS011;10319;52.206;20.996;2023-03-19T06:16:44;25.37;;;8.90;;
20322;SDS011;10319;52.206;20.996;2023-03-19T06:19:10;26.77;;;8.83;;
20322;SDS011;10319;52.206;20.996;2023-03-19T06:21:35;27.77;;;9.33;;
20322;SDS011;10319;52.206;20.996;2023-03-19T06:24:01;26.23;;;9.00;;
20322;SDS011;10319;52.206;20.996;2023-03-19T06:26:26;25.87;;;9.23;;
20322;SDS011;10319;52.206;20.996;2023-03-19T06:28:51;24.63;;;8.80;;
20322;SDS011;10319;52.206;20.996;2023-03-19T06:31:17;28.70;;;9.57;;
20322;SDS011;10319;52.206;20.996;2023-03-19T06:33:42;27.13;;;9.33;;
20322;SDS011;10319;52.206;20.996;2023-03-19T06:36:07;25.60;;;9.13;;
20322;SDS011;10319;52.206;20.996;2023-03-19T06:38:33;24.53;;;8.80;;
20322;SDS011;10319;52.206;20.996;2023-03-19T06:40:59;26.00;;;9.43;;
20322;SDS011;10319;52.206;20.996;2023-03-19T06:43:25;24.50;;;8.57;;
20322;SDS011;10319;52.206;20.996;2023-03-19T06:45:50;25.97;;;9.10;;
20322;SDS011;10319;52.206;20.996;2023-03-19T06:48:16;25.50;;;9.43;;
20322;SDS011;10319;52.206;20.996;2023-03-19T06:50:41;26.43;;;9.70;;
20322;SDS011;10319;52.206;20.996;2023-03-19T06:53:06;25.17;;;8.80;;
20322;SDS011;10319;52.206;20.996;2023-03-19T06:55:31;25.97;;;9.10;;
20322;SDS011;10319;52.206;20.996;2023-03-19T06:57:57;24.47;;;8.70;;
20322;SDS011;10319;52.206;20.996;2023-03-19T07:00:22;25.30;;;9.13;;
20322;SDS011;10319;52.206;20.996;2023-03-19T07:02:48;25.40;;;9.00;;
20322;SDS011;10319;52.206;20.996;2023-03-19T07:05:13;24.17;;;8.77;;
20322;SDS011;10319;52.206;20.996;2023-03-19T07:07:39;22.10;;;8.13;;
20322;SDS011;10319;52.206;20.996;2023-03-19T07:10:04;22.57;;;8.07;;
20322;SDS011;10319;52.206;20.996;2023-03-19T07:12:30;24.30;;;9.03;;
20322;SDS011;10319;52.206;20.996;2023-03-19T07:14:55;25.37;;;8.93;;
20322;SDS011;10319;52.206;20.996;2023-03-19T07:17:23;23.27;;;8.60;;
20322;SDS011;10319;52.206;20.996;2023-03-19T07:19:49;24.40;;;8.37;;
20322;SDS011;10319;52.206;20.996;2023-03-19T07:22:15;25.40;;;9.37;;
20322;SDS011;10319;52.206;20.996;2023-03-19T07:24:40;25.47;;;8.17;;
20322;SDS011;10319;52.206;20.996;2023-03-19T07:27:06;26.60;;;9.03;;
20322;SDS011;10319;52.206;20.996;2023-03-19T07:29:31;23.90;;;8.97;;
20322;SDS011;10319;52.206;20.996;2023-03-19T07:31:56;23.97;;;8.17;;
20322;SDS011;10319;52.206;20.996;2023-03-19T07:34:22;23.57;;;8.97;;
20322;SDS011;10319;52.206;20.996;2023-03-19T07:36:47;24.23;;;8.63;;
20322;SDS011;10319;52.206;20.996;2023-03-19T07:39:12;22.30;;;8.23;;
20322;SDS011;10319;52.206;20.996;2023-03-19T07:41:38;27.03;;;9.17;;
20322;SDS011;10319;52.206;20.996;2023-03-19T07:44:03;24.70;;;8.93;;
20322;SDS011;10319;52.206;20.996;2023-03-19T07:46:28;24.97;;;8.40;;
20322;SDS011;10319;52.206;20.996;2023-03-19T07:48:53;25.07;;;8.60;;
20322;SDS011;10319;52.206;20.996;2023-03-19T07:51:19;21.33;;;8.20;;
20322;SDS011;10319;52.206;20.996;2023-03-19T07:53:44;23.67;;;8.63;;
20322;SDS011;10319;52.206;20.996;2023-03-19T07:56:10;24.33;;;8.53;;
20322;SDS011;10319;52.206;20.996;2023-03-19T07:58:35;22.40;;;8.40;;
20322;SDS011;10319;52.206;20.996;2023-03-19T08:01:01;21.23;;;7.73;;
20322;SDS011;10319;52.206;20.996;2023-03-19T08:03:26;26.57;;;9.10;;
20322;SDS011;10319;52.206;20.996;2023-03-19T08:05:51;24.27;;;9.03;;
20322;SDS011;10319;52.206;20.996;2023-03-19T08:08:17;24.47;;;9.00;;
20322;SDS011;10319;52.206;20.996;2023-03-19T08:10:43;20.93;;;7.63;;
20322;SDS011;10319;52.206;20.996;2023-03-19T08:13:08;23.33;;;8.43;;
20322;SDS011;10319;52.206;20.996;2023-03-19T08:15:33;22.20;;;7.90;;
20322;SDS011;10319;52.206;20.996;2023-03-19T08:17:59;21.87;;;8.03;;
20322;SDS011;10319;52.206;20.996;2023-03-19T08:20:25;21.90;;;8.00;;
20322;SDS011;10319;52.206;20.996;2023-03-19T08:22:53;23.07;;;8.40;;
20322;SDS011;10319;52.206;20.996;2023-03-19T08:25:18;21.07;;;7.97;;
20322;SDS011;10319;52.206;20.996;2023-03-19T08:27:44;24.63;;;8.03;;
20322;SDS011;10319;52.206;20.996;2023-03-19T08:30:09;19.33;;;7.30;;
20322;SDS011;10319;52.206;20.996;2023-03-19T08:32:35;23.67;;;8.40;;
20322;SDS011;10319;52.206;20.996;2023-03-19T08:35:01;20.70;;;7.77;;
20322;SDS011;10319;52.206;20.996;2023-03-19T08:37:26;20.03;;;7.43;;
20322;SDS011;10319;52.206;20.996;2023-03-19T08:39:53;21.07;;;7.50;;
20322;SDS011;10319;52.206;20.996;2023-03-19T08:42:18;23.43;;;7.57;;
20322;SDS011;10319;52.206;20.996;2023-03-19T08:44:44;18.97;;;6.93;;
20322;SDS011;10319;52.206;20.996;2023-03-19T08:47:09;19.97;;;7.53;;
20322;SDS011;10319;52.206;20.996;2023-03-19T08:49:35;20.77;;;7.37;;
20322;SDS011;10319;52.206;20.996;2023-03-19T08:52:00;19.17;;;7.10;;
20322;SDS011;10319;52.206;20.996;2023-03-19T08:54:26;20.47;;;7.53;;
20322;SDS011;10319;52.206;20.996;2023-03-19T08:56:51;19.53;;;6.73;;
20322;SDS011;10319;52.206;20.996;2023-03-19T08:59:16;20.90;;;7.40;;
20322;SDS011;10319;52.206;20.996;2023-03-19T09:01:41;18.00;;;6.20;;
20322;SDS011;10319;52.206;20.996;2023-03-19T09:04:08;18.47;;;6.00;;
20322;SDS011;10319;52.206;20.996;2023-03-19T09:06:33;19.73;;;6.83;;
20322;SDS011;10319;52.206;20.996;2023-03-19T09:08:58;17.43;;;6.13;;
20322;SDS011;10319;52.206;20.996;2023-03-19T09:11:23;17.77;;;6.07;;
20322;SDS011;10319;52.206;20.996;2023-03-19T09:13:49;17.60;;;6.03;;
20322;SDS011;10319;52.206;20.996;2023-03-19T09:16:14;16.57;;;5.90;;
20322;SDS011;10319;52.206;20.996;2023-03-19T09:18:39;16.80;;;5.90;;
20322;SDS011;10319;52.206;20.996;2023-03-19T09:21:05;18.97;;;6.40;;
20322;SDS011;10319;52.206;20.996;2023-03-19T09:23:30;15.73;;;5.67;;
20322;SDS011;10319;52.206;20.996;2023-03-19T09:25:55;18.13;;;5.60;;
20322;SDS011;10319;52.206;20.996;2023-03-19T09:28:21;19.37;;;6.33;;
20322;SDS011;10319;52.206;20.996;2023-03-19T09:30:47;18.20;;;6.20;;
20322;SDS011;10319;52.206;20.996;2023-03-19T09:33:12;18.03;;;5.87;;
20322;SDS011;10319;52.206;20.996;2023-03-19T09:35:38;16.37;;;5.77;;
20322;SDS011;10319;52.206;20.996;2023-03-19T09:38:03;18.10;;;5.87;;
20322;SDS011;10319;52.206;20.996;2023-03-19T09:40:37;15.43;;;5.17;;
20322;SDS011;10319;52.206;20.996;2023-03-19T09:45:46;17.13;;;5.63;;
20322;SDS011;10319;52.206;20.996;2023-03-19T09:48:13;17.97;;;5.60;;
20322;SDS011;10319;52.206;20.996;2023-03-19T09:50:40;16.03;;;5.43;;
20322;SDS011;10319;52.206;20.996;2023-03-19T09:56:07;14.70;;;5.00;;
20322;SDS011;10319;52.206;20.996;2023-03-19T09:58:35;15.23;;;5.10;;
20322;SDS011;10319;52.206;20.996;2023-03-19T10:01:00;16.67;;;5.13;;
20322;SDS011;10319;52.206;20.996;2023-03-19T10:08:45;16.30;;;5.50;;
20322;SDS011;10319;52.206;20.996;2023-03-19T10:16:21;17.55;;;5.03;;
20322;SDS011;10319;52.206;20.996;2023-03-19T10:18:47;15.73;;;5.00;;
20322;SDS011;10319;52.206;20.996;2023-03-19T10:21:28;15.53;;;5.07;;
20322;SDS011;10319;52.206;20.996;2023-03-19T10:23:56;14.88;;;4.93;;
20322;SDS011;10319;52.206;20.996;2023-03-19T10:26:28;17.55;;;5.43;;
20322;SDS011;10319;52.206;20.996;2023-03-19T10:29:02;15.95;;;4.85;;
20322;SDS011;10319;52.206;20.996;2023-03-19T10:31:29;14.90;;;5.10;;
20322;SDS011;10319;52.206;20.996;2023-03-19T10:36:29;15.63;;;5.10;;
20322;SDS011;10319;52.206;20.996;2023-03-19T10:38:57;16.00;;;4.80;;
20322;SDS011;10319;52.206;20.996;2023-03-19T10:44:01;15.45;;;4.95;;
20322;SDS011;10319;52.206;20.996;2023-03-19T10:46:35;13.63;;;4.70;;
20322;SDS011;10319;52.206;20.996;2023-03-19T10:49:00;15.25;;;5.35;;
20322;SDS011;10319;52.206;20.996;2023-03-19T10:51:25;14.82;;;4.78;;
20322;SDS011;10319;52.206;20.996;2023-03-19T10:53:51;14.55;;;4.68;;
20322;SDS011;10319;52.206;20.996;2023-03-19T11:01:31;15.00;;;5.03;;
20322;SDS011;10319;52.206;20.996;2023-03-19T11:03:57;14.48;;;4.55;;
20322;SDS011;10319;52.206;20.996;2023-03-19T11:08:53;15.65;;;5.13;;
20322;SDS011;10319;52.206;20.996;2023-03-19T11:11:33;14.10;;;4.82;;
20322;SDS011;10319;52.206;20.996;2023-03-19T11:14:04;14.35;;;5.00;;
20322;SDS011;10319;52.206;20.996;2023-03-19T11:16:30;14.48;;;4.20;;
20322;SDS011;10319;52.206;20.996;2023-03-19T11:18:55;14.55;;;4.63;;
20322;SDS011;10319;52.206;20.996;2023-03-19T11:21:22;15.38;;;4.72;;
20322;SDS011;10319;52.206;20.996;2023-03-19T11:23:50;13.20;;;4.20;;
20322;SDS011;10319;52.206;20.996;2023-03-19T11:26:19;16.58;;;4.60;;
20322;SDS011;10319;52.206;20.996;2023-03-19T11:28:49;15.02;;;4.60;;
20322;SDS011;10319;52.206;20.996;2023-03-19T11:31:17;15.70;;;4.50;;
20322;SDS011;10319;52.206;20.996;2023-03-19T11:36:29;14.52;;;4.65;;
20322;SDS011;10319;52.206;20.996;2023-03-19T11:39:13;13.43;;;4.53;;
20322;SDS011;10319;52.206;20.996;2023-03-19T11:41:52;15.13;;;4.50;;
20322;SDS011;10319;52.206;20.996;2023-03-19T11:59:46;14.35;;;4.20;;
20322;SDS011;10319;52.206;20.996;2023-03-19T12:08:03;13.57;;;4.18;;
20322;SDS011;10319;52.206;20.996;2023-03-19T12:15:38;13.65;;;4.40;;
20322;SDS011;10319;52.206;20.996;2023-03-19T12:18:20;14.30;;;4.50;;
20322;SDS011;10319;52.206;20.996;2023-03-19T12:29:23;14.55;;;4.72;;
20322;SDS011;10319;52.206;20.996;2023-03-19T12:34:51;13.77;;;4.35;;
20322;SDS011;10319;52.206;20.996;2023-03-19T12:37:22;14.48;;;4.47;;
20322;SDS011;10319;52.206;20.996;2023-03-19T13:38:32;14.40;;;4.00;;
20322;SDS011;10319;52.206;20.996;2023-03-19T13:40:59;14.80;;;4.38;;
20322;SDS011;10319;52.206;20.996;2023-03-19T13:59:32;12.93;;;4.25;;
20322;SDS011;10319;52.206;20.996;2023-03-19T14:01:58;14.50;;;4.50;;
20322;SDS011;10319;52.206;20.996;2023-03-19T14:04:30;13.82;;;3.95;;
20322;SDS011;10319;52.206;20.996;2023-03-19T14:11:53;12.15;;;3.75;;
20322;SDS011;10319;52.206;20.996;2023-03-19T14:14:18;13.40;;;4.05;;
20322;SDS011;10319;52.206;20.996;2023-03-19T14:16:45;13.35;;;4.30;;
20322;SDS011;10319;52.206;20.996;2023-03-19T14:19:15;11.93;;;3.35;;
20322;SDS011;10319;52.206;20.996;2023-03-19T14:21:59;13.80;;;3.92;;
20322;SDS011;10319;52.206;20.996;2023-03-19T14:24:32;12.60;;;3.85;;
20322;SDS011;10319;52.206;20.996;2023-03-19T14:27:00;13.77;;;4.20;;
20322;SDS011;10319;52.206;20.996;2023-03-19T14:29:26;14.07;;;3.70;;
20322;SDS011;10319;52.206;20.996;2023-03-19T14:31:52;13.23;;;3.97;;
20322;SDS011;10319;52.206;20.996;2023-03-19T14:34:19;13.20;;;3.95;;
20322;SDS011;10319;52.206;20.996;2023-03-19T14:36:56;14.15;;;4.03;;
20322;SDS011;10319;52.206;20.996;2023-03-19T14:39:29;13.70;;;4.30;;
20322;SDS011;10319;52.206;20.996;2023-03-19T14:42:06;14.10;;;4.68;;
20322;SDS011;10319;52.206;20.996;2023-03-19T14:47:16;13.63;;;4.22;;
20322;SDS011;10319;52.206;20.996;2023-03-19T14:49:55;14.23;;;4.38;;
20322;SDS011;10319;52.206;20.996;2023-03-19T14:54:58;13.15;;;4.45;;
20322;SDS011;10319;52.206;20.996;2023-03-19T14:57:25;13.00;;;4.00;;
20322;SDS011;10319;52.206;20.996;2023-03-19T14:59:51;12.45;;;3.88;;
20322;SDS011;10319;52.206;20.996;2023-03-19T15:04:55;15.85;;;4.22;;
20322;SDS011;10319;52.206;20.996;2023-03-19T15:07:23;13.55;;;4.38;;
20322;SDS011;10319;52.206;20.996;2023-03-19T15:09:51;14.50;;;4.30;;
20322;SDS011;10319;52.206;20.996;2023-03-19T15:19:40;12.95;;;4.07;;
20322;SDS011;10319;52.206;20.996;2023-03-19T15:22:10;13.45;;;4.03;;
20322;SDS011;10319;52.206;20.996;2023-03-19T15:24:36;13.65;;;4.07;;
20322;SDS011;10319;52.206;20.996;2023-03-19T15:27:01;14.65;;;4.32;;
20322;SDS011;10319;52.206;20.996;2023-03-19T15:29:30;14.13;;;4.05;;
20322;SDS011;10319;52.206;20.996;2023-03-19T15:31:56;13.68;;;4.13;;
20322;SDS011;10319;52.206;20.996;2023-03-19T15:34:23;21.13;;;4.43;;
20322;SDS011;10319;52.206;20.996;2023-03-19T15:36:50;16.08;;;4.13;;
20322;SDS011;10319;52.206;20.996;2023-03-19T15:39:17;12.00;;;3.20;;
20322;SDS011;10319;52.206;20.996;2023-03-19T15:41:45;13.63;;;3.65;;
20322;SDS011;10319;52.206;20.996;2023-03-19T15:44:33;12.70;;;3.38;;
20322;SDS011;10319;52.206;20.996;2023-03-19T15:46:57;15.25;;;3.97;;
20322;SDS011;10319;52.206;20.996;2023-03-19T15:49:57;13.70;;;3.80;;
20322;SDS011;10319;52.206;20.996;2023-03-19T15:52:14;14.40;;;4.43;;
20322;SDS011;10319;52.206;20.996;2023-03-19T15:54:40;12.75;;;4.25;;
20322;SDS011;10319;52.206;20.996;2023-03-19T15:57:05;13.82;;;3.70;;
20322;SDS011;10319;52.206;20.996;2023-03-19T15:59:31;13.48;;;4.00;;
20322;SDS011;10319;52.206;20.996;2023-03-19T16:02:01;13.88;;;3.88;;
20322;SDS011;10319;52.206;20.996;2023-03-19T16:04:26;13.13;;;3.70;;
20322;SDS011;10319;52.206;20.996;2023-03-19T16:06:53;11.57;;;3.00;;
20322;SDS011;10319;52.206;20.996;2023-03-19T16:11:48;13.02;;;3.78;;
20322;SDS011;10319;52.206;20.996;2023-03-19T16:16:41;12.18;;;3.15;;
20322;SDS011;10319;52.206;20.996;2023-03-19T16:21:53;12.60;;;3.58;;
20322;SDS011;10319;52.206;20.996;2023-03-19T16:24:29;13.38;;;3.85;;
20322;SDS011;10319;52.206;20.996;2023-03-19T16:26:56;14.25;;;4.07;;
20322;SDS011;10319;52.206;20.996;2023-03-19T16:29:26;14.35;;;4.68;;
20322;SDS011;10319;52.206;20.996;2023-03-19T16:31:58;15.33;;;4.33;;
20322;SDS011;10319;52.206;20.996;2023-03-19T16:34:28;15.80;;;4.17;;
20322;SDS011;10319;52.206;20.996;2023-03-19T16:36:54;13.63;;;4.40;;
20322;SDS011;10319;52.206;20.996;2023-03-19T16:44:31;11.20;;;2.90;;
20322;SDS011;10319;52.206;20.996;2023-03-19T16:46:56;11.77;;;3.20;;
20322;SDS011;10319;52.206;20.996;2023-03-19T16:49:22;11.90;;;3.13;;
20322;SDS011;10319;52.206;20.996;2023-03-19T16:51:47;9.90;;;2.73;;
20322;SDS011;10319;52.206;20.996;2023-03-19T16:54:12;13.47;;;3.23;;
20322;SDS011;10319;52.206;20.996;2023-03-19T16:56:38;14.70;;;4.23;;
20322;SDS011;10319;52.206;20.996;2023-03-19T16:59:03;12.03;;;3.30;;
20322;SDS011;10319;52.206;20.996;2023-03-19T17:01:28;11.20;;;3.10;;
20322;SDS011;10319;52.206;20.996;2023-03-19T17:03:54;11.43;;;3.40;;
20322;SDS011;10319;52.206;20.996;2023-03-19T17:06:19;12.10;;;3.47;;
20322;SDS011;10319;52.206;20.996;2023-03-19T17:08:45;11.37;;;3.23;;
20322;SDS011;10319;52.206;20.996;2023-03-19T17:13:59;12.40;;;3.53;;
20322;SDS011;10319;52.206;20.996;2023-03-19T17:16:26;12.60;;;3.53;;
20322;SDS011;10319;52.206;20.996;2023-03-19T17:18:51;12.07;;;3.27;;
20322;SDS011;10319;52.206;20.996;2023-03-19T17:21:17;12.50;;;3.40;;